sensor_id;sensor_type;location;lat;lon;timestamp;temperature;humidity
72883;DHT22;61017;37.812;-122.286;2024-03-08T00:00:09;16.10;79.20
72883;DHT22;61017;37.812;-122.286;2024-03-08T00:01:41;16.10;79.70
72883;DHT22;61017;37.812;-122.286;2024-03-08T00:03:13;16.10;79.00
72883;DHT22;61017;37.812;-122.286;2024-03-08T00:04:44;16.10;79.10
72883;DHT22;61017;37.812;-122.286;2024-03-08T00:06:16;16.10;79.20
72883;DHT22;61017;37.812;-122.286;2024-03-08T00:07:47;16.10;79.30
72883;DHT22;61017;37.812;-122.286;2024-03-08T00:09:19;16.10;79.40
72883;DHT22;61017;37.812;-122.286;2024-03-08T00:10:51;16.10;79.50
72883;DHT22;61017;37.812;-122.286;2024-03-08T00:12:22;16.10;79.30
72883;DHT22;61017;37.812;-122.286;2024-03-08T00:13:54;16.10;79.40
72883;DHT22;61017;37.812;-122.286;2024-03-08T00:15:26;16.10;79.30
72883;DHT22;61017;37.812;-122.286;2024-03-08T00:16:57;16.10;79.60
72883;DHT22;61017;37.812;-122.286;2024-03-08T00:18:29;16.10;79.20
72883;DHT22;61017;37.812;-122.286;2024-03-08T00:20:01;16.10;79.50
72883;DHT22;61017;37.812;-122.286;2024-03-08T00:21:32;16.10;79.40
72883;DHT22;61017;37.812;-122.286;2024-03-08T00:23:04;16.10;79.20
72883;DHT22;61017;37.812;-122.286;2024-03-08T00:24:36;16.10;78.40
72883;DHT22;61017;37.812;-122.286;2024-03-08T00:26:10;16.10;77.70
72883;DHT22;61017;37.812;-122.286;2024-03-08T00:27:45;16.10;78.50
72883;DHT22;61017;37.812;-122.286;2024-03-08T00:29:17;16.10;78.70
72883;DHT22;61017;37.812;-122.286;2024-03-08T00:30:48;16.10;79.70
72883;DHT22;61017;37.812;-122.286;2024-03-08T00:32:20;16.10;79.20
72883;DHT22;61017;37.812;-122.286;2024-03-08T00:33:52;16.10;79.00
72883;DHT22;61017;37.812;-122.286;2024-03-08T00:35:23;16.10;78.70
72883;DHT22;61017;37.812;-122.286;2024-03-08T00:36:55;16.10;78.60
72883;DHT22;61017;37.812;-122.286;2024-03-08T00:38:27;16.10;79.10
72883;DHT22;61017;37.812;-122.286;2024-03-08T00:39:59;16.10;79.20
72883;DHT22;61017;37.812;-122.286;2024-03-08T00:41:31;16.10;79.20
72883;DHT22;61017;37.812;-122.286;2024-03-08T00:43:03;16.10;79.10
72883;DHT22;61017;37.812;-122.286;2024-03-08T00:44:34;16.10;79.20
72883;DHT22;61017;37.812;-122.286;2024-03-08T00:46:06;16.10;79.00
72883;DHT22;61017;37.812;-122.286;2024-03-08T00:47:38;16.10;79.50
72883;DHT22;61017;37.812;-122.286;2024-03-08T00:49:12;16.10;79.50
72883;DHT22;61017;37.812;-122.286;2024-03-08T00:50:44;16.10;79.50
72883;DHT22;61017;37.812;-122.286;2024-03-08T00:52:16;16.10;79.20
72883;DHT22;61017;37.812;-122.286;2024-03-08T00:53:47;16.10;80.00
72883;DHT22;61017;37.812;-122.286;2024-03-08T00:55:19;16.10;79.40
72883;DHT22;61017;37.812;-122.286;2024-03-08T00:56:51;16.10;79.60
72883;DHT22;61017;37.812;-122.286;2024-03-08T00:58:23;16.10;79.10
72883;DHT22;61017;37.812;-122.286;2024-03-08T00:59:54;16.10;79.20
72883;DHT22;61017;37.812;-122.286;2024-03-08T01:01:26;16.10;80.20
72883;DHT22;61017;37.812;-122.286;2024-03-08T01:03:00;16.10;79.40
72883;DHT22;61017;37.812;-122.286;2024-03-08T01:04:32;16.10;79.40
72883;DHT22;61017;37.812;-122.286;2024-03-08T01:06:04;16.10;80.00
72883;DHT22;61017;37.812;-122.286;2024-03-08T01:07:35;16.10;79.30
72883;DHT22;61017;37.812;-122.286;2024-03-08T01:09:07;16.10;79.50
72883;DHT22;61017;37.812;-122.286;2024-03-08T01:10:39;16.10;79.50
72883;DHT22;61017;37.812;-122.286;2024-03-08T01:12:11;16.10;79.60
72883;DHT22;61017;37.812;-122.286;2024-03-08T01:13:42;16.10;78.80
72883;DHT22;61017;37.812;-122.286;2024-03-08T01:15:14;16.10;79.90
72883;DHT22;61017;37.812;-122.286;2024-03-08T01:16:46;16.10;79.30
72883;DHT22;61017;37.812;-122.286;2024-03-08T01:18:17;16.10;79.60
72883;DHT22;61017;37.812;-122.286;2024-03-08T01:19:49;16.10;79.70
72883;DHT22;61017;37.812;-122.286;2024-03-08T01:21:22;16.10;79.10
72883;DHT22;61017;37.812;-122.286;2024-03-08T01:22:54;16.10;79.30
72883;DHT22;61017;37.812;-122.286;2024-03-08T01:24:26;16.10;79.40
72883;DHT22;61017;37.812;-122.286;2024-03-08T01:25:57;16.10;79.60
72883;DHT22;61017;37.812;-122.286;2024-03-08T01:27:29;16.10;79.70
72883;DHT22;61017;37.812;-122.286;2024-03-08T01:29:01;16.10;79.30
72883;DHT22;61017;37.812;-122.286;2024-03-08T01:30:33;16.10;79.60
72883;DHT22;61017;37.812;-122.286;2024-03-08T01:32:04;16.10;79.50
72883;DHT22;61017;37.812;-122.286;2024-03-08T01:33:36;16.10;79.80
72883;DHT22;61017;37.812;-122.286;2024-03-08T01:35:08;16.10;79.50
72883;DHT22;61017;37.812;-122.286;2024-03-08T01:36:40;16.10;79.30
72883;DHT22;61017;37.812;-122.286;2024-03-08T01:38:11;16.00;79.50
72883;DHT22;61017;37.812;-122.286;2024-03-08T01:39:43;16.10;79.70
72883;DHT22;61017;37.812;-122.286;2024-03-08T01:41:14;16.10;79.80
72883;DHT22;61017;37.812;-122.286;2024-03-08T01:42:46;16.10;79.70
72883;DHT22;61017;37.812;-122.286;2024-03-08T01:44:18;16.10;79.50
72883;DHT22;61017;37.812;-122.286;2024-03-08T01:45:49;16.10;79.60
72883;DHT22;61017;37.812;-122.286;2024-03-08T01:47:23;16.10;79.90
72883;DHT22;61017;37.812;-122.286;2024-03-08T01:48:56;16.10;80.10
72883;DHT22;61017;37.812;-122.286;2024-03-08T01:50:27;16.10;79.60
72883;DHT22;61017;37.812;-122.286;2024-03-08T01:51:59;16.10;79.50
72883;DHT22;61017;37.812;-122.286;2024-03-08T01:53:31;16.10;80.40
72883;DHT22;61017;37.812;-122.286;2024-03-08T01:55:05;16.10;79.60
72883;DHT22;61017;37.812;-122.286;2024-03-08T01:56:38;16.10;79.70
72883;DHT22;61017;37.812;-122.286;2024-03-08T01:58:09;16.10;79.50
72883;DHT22;61017;37.812;-122.286;2024-03-08T01:59:41;16.10;79.50
72883;DHT22;61017;37.812;-122.286;2024-03-08T02:01:13;16.10;79.60
72883;DHT22;61017;37.812;-122.286;2024-03-08T02:02:47;16.10;79.80
72883;DHT22;61017;37.812;-122.286;2024-03-08T02:04:20;16.10;79.80
72883;DHT22;61017;37.812;-122.286;2024-03-08T02:05:51;16.10;79.80
72883;DHT22;61017;37.812;-122.286;2024-03-08T02:07:23;16.10;79.60
72883;DHT22;61017;37.812;-122.286;2024-03-08T02:09:03;16.10;79.90
72883;DHT22;61017;37.812;-122.286;2024-03-08T02:10:35;16.10;80.00
72883;DHT22;61017;37.812;-122.286;2024-03-08T02:12:08;16.10;79.80
72883;DHT22;61017;37.812;-122.286;2024-03-08T02:13:39;16.10;79.70
72883;DHT22;61017;37.812;-122.286;2024-03-08T02:15:11;16.10;79.60
72883;DHT22;61017;37.812;-122.286;2024-03-08T02:16:42;16.10;80.00
72883;DHT22;61017;37.812;-122.286;2024-03-08T02:18:14;16.10;79.80
72883;DHT22;61017;37.812;-122.286;2024-03-08T02:19:46;16.00;79.60
72883;DHT22;61017;37.812;-122.286;2024-03-08T02:21:18;16.00;80.00
72883;DHT22;61017;37.812;-122.286;2024-03-08T02:22:50;16.00;79.60
72883;DHT22;61017;37.812;-122.286;2024-03-08T02:24:21;16.00;80.10
72883;DHT22;61017;37.812;-122.286;2024-03-08T02:25:54;16.00;80.00
72883;DHT22;61017;37.812;-122.286;2024-03-08T02:27:26;16.10;80.10
72883;DHT22;61017;37.812;-122.286;2024-03-08T02:28:58;16.10;79.70
72883;DHT22;61017;37.812;-122.286;2024-03-08T02:30:30;16.10;79.60
72883;DHT22;61017;37.812;-122.286;2024-03-08T02:32:01;16.10;80.10
72883;DHT22;61017;37.812;-122.286;2024-03-08T02:33:33;16.10;79.60
72883;DHT22;61017;37.812;-122.286;2024-03-08T02:35:05;16.10;79.80
72883;DHT22;61017;37.812;-122.286;2024-03-08T02:36:37;16.10;80.10
72883;DHT22;61017;37.812;-122.286;2024-03-08T02:38:08;16.10;79.60
72883;DHT22;61017;37.812;-122.286;2024-03-08T02:39:40;16.10;80.10
72883;DHT22;61017;37.812;-122.286;2024-03-08T02:41:11;16.00;80.00
72883;DHT22;61017;37.812;-122.286;2024-03-08T02:42:43;16.10;79.90
72883;DHT22;61017;37.812;-122.286;2024-03-08T02:44:16;16.10;79.60
72883;DHT22;61017;37.812;-122.286;2024-03-08T02:45:48;16.00;79.70
72883;DHT22;61017;37.812;-122.286;2024-03-08T02:47:20;16.00;79.50
72883;DHT22;61017;37.812;-122.286;2024-03-08T02:48:51;16.10;79.80
72883;DHT22;61017;37.812;-122.286;2024-03-08T02:50:23;16.00;79.80
72883;DHT22;61017;37.812;-122.286;2024-03-08T02:51:55;16.00;80.00
72883;DHT22;61017;37.812;-122.286;2024-03-08T02:53:26;16.00;79.70
72883;DHT22;61017;37.812;-122.286;2024-03-08T02:54:58;16.00;79.50
72883;DHT22;61017;37.812;-122.286;2024-03-08T02:56:29;16.00;80.20
72883;DHT22;61017;37.812;-122.286;2024-03-08T02:58:04;16.00;80.00
72883;DHT22;61017;37.812;-122.286;2024-03-08T02:59:35;16.00;79.70
72883;DHT22;61017;37.812;-122.286;2024-03-08T03:01:07;16.00;80.00
72883;DHT22;61017;37.812;-122.286;2024-03-08T03:02:39;16.00;79.90
72883;DHT22;61017;37.812;-122.286;2024-03-08T03:04:10;16.00;80.00
72883;DHT22;61017;37.812;-122.286;2024-03-08T03:05:42;16.00;79.50
72883;DHT22;61017;37.812;-122.286;2024-03-08T03:07:14;16.00;79.70
72883;DHT22;61017;37.812;-122.286;2024-03-08T03:08:46;16.00;79.80
72883;DHT22;61017;37.812;-122.286;2024-03-08T03:10:18;16.00;79.80
72883;DHT22;61017;37.812;-122.286;2024-03-08T03:11:49;16.00;79.70
72883;DHT22;61017;37.812;-122.286;2024-03-08T03:13:21;16.00;79.80
72883;DHT22;61017;37.812;-122.286;2024-03-08T03:14:52;16.00;79.70
72883;DHT22;61017;37.812;-122.286;2024-03-08T03:16:24;16.00;79.80
72883;DHT22;61017;37.812;-122.286;2024-03-08T03:17:56;16.00;80.00
72883;DHT22;61017;37.812;-122.286;2024-03-08T03:19:27;16.00;79.70
72883;DHT22;61017;37.812;-122.286;2024-03-08T03:20:59;15.90;79.80
72883;DHT22;61017;37.812;-122.286;2024-03-08T03:22:30;16.00;80.00
72883;DHT22;61017;37.812;-122.286;2024-03-08T03:24:02;15.90;79.80
72883;DHT22;61017;37.812;-122.286;2024-03-08T03:25:34;15.90;79.80
72883;DHT22;61017;37.812;-122.286;2024-03-08T03:27:05;15.90;79.80
72883;DHT22;61017;37.812;-122.286;2024-03-08T03:28:37;15.90;79.70
72883;DHT22;61017;37.812;-122.286;2024-03-08T03:30:09;15.90;79.70
72883;DHT22;61017;37.812;-122.286;2024-03-08T03:31:41;15.90;79.60
72883;DHT22;61017;37.812;-122.286;2024-03-08T03:33:12;15.90;79.40
72883;DHT22;61017;37.812;-122.286;2024-03-08T03:34:44;15.90;79.60
72883;DHT22;61017;37.812;-122.286;2024-03-08T03:36:16;15.90;79.40
72883;DHT22;61017;37.812;-122.286;2024-03-08T03:37:48;15.90;79.70
72883;DHT22;61017;37.812;-122.286;2024-03-08T03:39:19;15.90;79.50
72883;DHT22;61017;37.812;-122.286;2024-03-08T03:40:51;15.90;79.60
72883;DHT22;61017;37.812;-122.286;2024-03-08T03:42:22;15.90;79.60
72883;DHT22;61017;37.812;-122.286;2024-03-08T03:43:54;15.90;79.70
72883;DHT22;61017;37.812;-122.286;2024-03-08T03:45:26;15.90;79.70
72883;DHT22;61017;37.812;-122.286;2024-03-08T03:46:57;15.90;79.60
72883;DHT22;61017;37.812;-122.286;2024-03-08T03:48:29;15.90;79.60
72883;DHT22;61017;37.812;-122.286;2024-03-08T03:50:01;15.90;79.50
72883;DHT22;61017;37.812;-122.286;2024-03-08T03:51:35;15.90;79.10
72883;DHT22;61017;37.812;-122.286;2024-03-08T03:53:07;15.90;78.90
72883;DHT22;61017;37.812;-122.286;2024-03-08T03:54:41;15.90;79.30
72883;DHT22;61017;37.812;-122.286;2024-03-08T03:56:13;15.80;79.20
72883;DHT22;61017;37.812;-122.286;2024-03-08T03:57:45;15.90;79.40
72883;DHT22;61017;37.812;-122.286;2024-03-08T03:59:16;15.80;79.20
72883;DHT22;61017;37.812;-122.286;2024-03-08T04:00:48;15.90;79.10
72883;DHT22;61017;37.812;-122.286;2024-03-08T04:02:20;15.80;78.80
72883;DHT22;61017;37.812;-122.286;2024-03-08T04:03:52;15.80;79.10
72883;DHT22;61017;37.812;-122.286;2024-03-08T04:05:23;15.90;79.40
72883;DHT22;61017;37.812;-122.286;2024-03-08T04:06:55;15.90;79.30
72883;DHT22;61017;37.812;-122.286;2024-03-08T04:08:26;15.90;79.10
72883;DHT22;61017;37.812;-122.286;2024-03-08T04:09:58;15.90;79.10
72883;DHT22;61017;37.812;-122.286;2024-03-08T04:11:30;15.90;78.90
72883;DHT22;61017;37.812;-122.286;2024-03-08T04:13:01;15.90;79.30
72883;DHT22;61017;37.812;-122.286;2024-03-08T04:14:33;15.90;79.30
72883;DHT22;61017;37.812;-122.286;2024-03-08T04:16:05;15.90;79.10
72883;DHT22;61017;37.812;-122.286;2024-03-08T04:17:37;15.90;79.10
72883;DHT22;61017;37.812;-122.286;2024-03-08T04:19:08;15.90;79.30
72883;DHT22;61017;37.812;-122.286;2024-03-08T04:20:40;15.90;79.20
72883;DHT22;61017;37.812;-122.286;2024-03-08T04:22:12;15.90;79.30
72883;DHT22;61017;37.812;-122.286;2024-03-08T04:23:43;15.80;78.90
72883;DHT22;61017;37.812;-122.286;2024-03-08T04:25:15;15.90;79.20
72883;DHT22;61017;37.812;-122.286;2024-03-08T04:26:47;15.90;79.30
72883;DHT22;61017;37.812;-122.286;2024-03-08T04:28:18;15.80;79.20
72883;DHT22;61017;37.812;-122.286;2024-03-08T04:29:50;15.80;79.10
72883;DHT22;61017;37.812;-122.286;2024-03-08T04:31:23;15.80;79.20
72883;DHT22;61017;37.812;-122.286;2024-03-08T04:32:55;15.90;79.40
72883;DHT22;61017;37.812;-122.286;2024-03-08T04:34:27;15.90;79.40
72883;DHT22;61017;37.812;-122.286;2024-03-08T04:35:59;15.90;79.50
72883;DHT22;61017;37.812;-122.286;2024-03-08T04:37:31;15.90;79.40
72883;DHT22;61017;37.812;-122.286;2024-03-08T04:39:03;15.90;79.40
72883;DHT22;61017;37.812;-122.286;2024-03-08T04:40:35;15.90;79.40
72883;DHT22;61017;37.812;-122.286;2024-03-08T04:42:06;15.90;79.40
72883;DHT22;61017;37.812;-122.286;2024-03-08T04:43:39;15.90;79.40
72883;DHT22;61017;37.812;-122.286;2024-03-08T04:45:11;15.90;79.40
72883;DHT22;61017;37.812;-122.286;2024-03-08T04:46:42;15.90;79.50
72883;DHT22;61017;37.812;-122.286;2024-03-08T04:48:14;15.90;79.40
72883;DHT22;61017;37.812;-122.286;2024-03-08T04:49:46;15.90;79.50
72883;DHT22;61017;37.812;-122.286;2024-03-08T04:51:17;15.90;79.50
72883;DHT22;61017;37.812;-122.286;2024-03-08T04:52:49;15.90;79.50
72883;DHT22;61017;37.812;-122.286;2024-03-08T04:54:20;15.90;79.60
72883;DHT22;61017;37.812;-122.286;2024-03-08T04:55:52;15.90;79.60
72883;DHT22;61017;37.812;-122.286;2024-03-08T04:57:24;15.90;79.50
72883;DHT22;61017;37.812;-122.286;2024-03-08T04:58:55;15.90;79.60
72883;DHT22;61017;37.812;-122.286;2024-03-08T05:00:33;15.90;79.60
72883;DHT22;61017;37.812;-122.286;2024-03-08T05:02:05;15.90;79.50
72883;DHT22;61017;37.812;-122.286;2024-03-08T05:03:36;15.90;79.50
72883;DHT22;61017;37.812;-122.286;2024-03-08T05:05:08;15.90;79.60
72883;DHT22;61017;37.812;-122.286;2024-03-08T05:06:40;15.90;79.60
72883;DHT22;61017;37.812;-122.286;2024-03-08T05:08:12;15.90;79.60
72883;DHT22;61017;37.812;-122.286;2024-03-08T05:09:43;15.90;79.60
72883;DHT22;61017;37.812;-122.286;2024-03-08T05:11:15;15.90;79.60
72883;DHT22;61017;37.812;-122.286;2024-03-08T05:12:47;15.90;79.60
72883;DHT22;61017;37.812;-122.286;2024-03-08T05:14:18;15.90;79.60
72883;DHT22;61017;37.812;-122.286;2024-03-08T05:15:50;16.00;79.80
72883;DHT22;61017;37.812;-122.286;2024-03-08T05:17:22;15.90;79.60
72883;DHT22;61017;37.812;-122.286;2024-03-08T05:18:53;15.90;79.60
72883;DHT22;61017;37.812;-122.286;2024-03-08T05:20:25;15.90;79.50
72883;DHT22;61017;37.812;-122.286;2024-03-08T05:21:57;15.90;79.60
72883;DHT22;61017;37.812;-122.286;2024-03-08T05:23:28;15.90;79.50
72883;DHT22;61017;37.812;-122.286;2024-03-08T05:25:00;15.90;79.60
72883;DHT22;61017;37.812;-122.286;2024-03-08T05:26:31;15.90;79.70
72883;DHT22;61017;37.812;-122.286;2024-03-08T05:28:03;15.90;79.50
72883;DHT22;61017;37.812;-122.286;2024-03-08T05:29:35;16.00;79.60
72883;DHT22;61017;37.812;-122.286;2024-03-08T05:31:06;15.90;79.50
72883;DHT22;61017;37.812;-122.286;2024-03-08T05:32:38;15.90;79.70
72883;DHT22;61017;37.812;-122.286;2024-03-08T05:34:10;15.90;79.60
72883;DHT22;61017;37.812;-122.286;2024-03-08T05:35:41;16.00;79.80
72883;DHT22;61017;37.812;-122.286;2024-03-08T05:37:13;15.90;79.70
72883;DHT22;61017;37.812;-122.286;2024-03-08T05:38:44;16.00;79.80
72883;DHT22;61017;37.812;-122.286;2024-03-08T05:40:16;15.90;79.70
72883;DHT22;61017;37.812;-122.286;2024-03-08T05:41:48;16.00;79.80
72883;DHT22;61017;37.812;-122.286;2024-03-08T05:43:20;16.00;79.80
72883;DHT22;61017;37.812;-122.286;2024-03-08T05:44:51;16.00;79.80
72883;DHT22;61017;37.812;-122.286;2024-03-08T05:46:23;16.00;79.90
72883;DHT22;61017;37.812;-122.286;2024-03-08T05:47:55;16.00;79.80
72883;DHT22;61017;37.812;-122.286;2024-03-08T05:49:26;16.00;79.80
72883;DHT22;61017;37.812;-122.286;2024-03-08T05:50:59;16.00;79.80
72883;DHT22;61017;37.812;-122.286;2024-03-08T05:52:31;16.00;79.80
72883;DHT22;61017;37.812;-122.286;2024-03-08T05:54:04;16.00;79.70
72883;DHT22;61017;37.812;-122.286;2024-03-08T05:55:39;16.00;79.70
72883;DHT22;61017;37.812;-122.286;2024-03-08T05:57:31;16.00;79.80
72883;DHT22;61017;37.812;-122.286;2024-03-08T05:59:03;16.00;79.80
72883;DHT22;61017;37.812;-122.286;2024-03-08T06:00:35;16.00;79.90
72883;DHT22;61017;37.812;-122.286;2024-03-08T06:02:07;16.00;80.00
72883;DHT22;61017;37.812;-122.286;2024-03-08T06:03:39;16.00;79.80
72883;DHT22;61017;37.812;-122.286;2024-03-08T06:05:11;16.00;79.80
72883;DHT22;61017;37.812;-122.286;2024-03-08T06:06:42;16.00;79.80
72883;DHT22;61017;37.812;-122.286;2024-03-08T06:08:14;15.90;79.80
72883;DHT22;61017;37.812;-122.286;2024-03-08T06:09:46;16.00;80.10
72883;DHT22;61017;37.812;-122.286;2024-03-08T06:11:37;15.90;79.80
72883;DHT22;61017;37.812;-122.286;2024-03-08T06:13:09;16.00;80.00
72883;DHT22;61017;37.812;-122.286;2024-03-08T06:14:41;15.90;79.80
72883;DHT22;61017;37.812;-122.286;2024-03-08T06:16:12;15.90;79.80
72883;DHT22;61017;37.812;-122.286;2024-03-08T06:17:47;15.90;79.90
72883;DHT22;61017;37.812;-122.286;2024-03-08T06:19:19;15.90;79.90
72883;DHT22;61017;37.812;-122.286;2024-03-08T06:20:50;15.90;79.80
72883;DHT22;61017;37.812;-122.286;2024-03-08T06:22:22;15.90;79.80
72883;DHT22;61017;37.812;-122.286;2024-03-08T06:23:56;15.90;80.00
72883;DHT22;61017;37.812;-122.286;2024-03-08T06:25:30;16.00;80.10
72883;DHT22;61017;37.812;-122.286;2024-03-08T06:27:02;15.90;80.00
72883;DHT22;61017;37.812;-122.286;2024-03-08T06:28:34;15.90;80.00
72883;DHT22;61017;37.812;-122.286;2024-03-08T06:30:07;15.90;80.00
72883;DHT22;61017;37.812;-122.286;2024-03-08T06:31:38;16.00;80.10
72883;DHT22;61017;37.812;-122.286;2024-03-08T06:33:10;15.90;80.00
72883;DHT22;61017;37.812;-122.286;2024-03-08T06:34:44;15.90;80.00
72883;DHT22;61017;37.812;-122.286;2024-03-08T06:36:19;15.90;80.10
72883;DHT22;61017;37.812;-122.286;2024-03-08T06:37:51;15.90;80.10
72883;DHT22;61017;37.812;-122.286;2024-03-08T06:39:22;15.90;80.10
72883;DHT22;61017;37.812;-122.286;2024-03-08T06:40:54;15.90;80.10
72883;DHT22;61017;37.812;-122.286;2024-03-08T06:42:25;15.90;80.10
72883;DHT22;61017;37.812;-122.286;2024-03-08T06:43:57;15.90;80.20
72883;DHT22;61017;37.812;-122.286;2024-03-08T06:45:32;15.90;80.20
72883;DHT22;61017;37.812;-122.286;2024-03-08T06:47:04;15.90;80.10
72883;DHT22;61017;37.812;-122.286;2024-03-08T06:48:35;15.90;80.10
72883;DHT22;61017;37.812;-122.286;2024-03-08T06:50:07;15.90;80.10
72883;DHT22;61017;37.812;-122.286;2024-03-08T06:51:39;15.90;80.10
72883;DHT22;61017;37.812;-122.286;2024-03-08T06:53:12;16.00;80.20
72883;DHT22;61017;37.812;-122.286;2024-03-08T06:54:43;15.90;80.10
72883;DHT22;61017;37.812;-122.286;2024-03-08T06:56:15;15.90;80.10
72883;DHT22;61017;37.812;-122.286;2024-03-08T06:57:46;15.90;80.10
72883;DHT22;61017;37.812;-122.286;2024-03-08T06:59:18;15.90;80.10
72883;DHT22;61017;37.812;-122.286;2024-03-08T07:00:50;15.90;80.10
72883;DHT22;61017;37.812;-122.286;2024-03-08T07:02:21;15.90;80.10
72883;DHT22;61017;37.812;-122.286;2024-03-08T07:03:53;15.90;80.10
72883;DHT22;61017;37.812;-122.286;2024-03-08T07:05:24;15.90;80.10
72883;DHT22;61017;37.812;-122.286;2024-03-08T07:06:56;15.90;80.10
72883;DHT22;61017;37.812;-122.286;2024-03-08T07:08:28;15.90;80.20
72883;DHT22;61017;37.812;-122.286;2024-03-08T07:09:59;15.90;80.20
72883;DHT22;61017;37.812;-122.286;2024-03-08T07:11:31;15.90;80.10
72883;DHT22;61017;37.812;-122.286;2024-03-08T07:13:03;15.90;80.20
72883;DHT22;61017;37.812;-122.286;2024-03-08T07:14:34;15.90;80.30
72883;DHT22;61017;37.812;-122.286;2024-03-08T07:16:08;15.90;80.20
72883;DHT22;61017;37.812;-122.286;2024-03-08T07:17:40;15.90;80.20
72883;DHT22;61017;37.812;-122.286;2024-03-08T07:19:11;15.90;80.20
72883;DHT22;61017;37.812;-122.286;2024-03-08T07:20:43;15.90;80.20
72883;DHT22;61017;37.812;-122.286;2024-03-08T07:22:15;15.90;80.20
72883;DHT22;61017;37.812;-122.286;2024-03-08T07:23:46;15.90;80.20
72883;DHT22;61017;37.812;-122.286;2024-03-08T07:25:18;15.90;80.20
72883;DHT22;61017;37.812;-122.286;2024-03-08T07:26:49;15.90;80.10
72883;DHT22;61017;37.812;-122.286;2024-03-08T07:28:21;15.90;80.20
72883;DHT22;61017;37.812;-122.286;2024-03-08T07:29:53;15.90;80.20
72883;DHT22;61017;37.812;-122.286;2024-03-08T07:31:24;15.90;80.20
72883;DHT22;61017;37.812;-122.286;2024-03-08T07:32:56;15.90;80.10
72883;DHT22;61017;37.812;-122.286;2024-03-08T07:34:27;15.90;80.20
72883;DHT22;61017;37.812;-122.286;2024-03-08T07:35:59;15.90;80.10
72883;DHT22;61017;37.812;-122.286;2024-03-08T07:37:31;15.90;80.10
72883;DHT22;61017;37.812;-122.286;2024-03-08T07:39:02;15.90;80.10
72883;DHT22;61017;37.812;-122.286;2024-03-08T07:40:38;15.90;80.10
72883;DHT22;61017;37.812;-122.286;2024-03-08T07:42:10;15.90;80.20
72883;DHT22;61017;37.812;-122.286;2024-03-08T07:43:42;15.90;80.10
72883;DHT22;61017;37.812;-122.286;2024-03-08T07:45:13;15.90;80.10
72883;DHT22;61017;37.812;-122.286;2024-03-08T07:46:45;15.90;80.00
72883;DHT22;61017;37.812;-122.286;2024-03-08T07:48:16;15.90;80.00
72883;DHT22;61017;37.812;-122.286;2024-03-08T07:49:48;15.80;79.90
72883;DHT22;61017;37.812;-122.286;2024-03-08T07:51:19;15.90;80.10
72883;DHT22;61017;37.812;-122.286;2024-03-08T07:52:51;15.80;80.00
72883;DHT22;61017;37.812;-122.286;2024-03-08T07:54:23;15.80;79.90
72883;DHT22;61017;37.812;-122.286;2024-03-08T07:55:54;15.80;79.90
72883;DHT22;61017;37.812;-122.286;2024-03-08T07:57:26;15.90;80.00
72883;DHT22;61017;37.812;-122.286;2024-03-08T07:59:01;15.90;80.00
72883;DHT22;61017;37.812;-122.286;2024-03-08T08:00:32;15.90;80.00
72883;DHT22;61017;37.812;-122.286;2024-03-08T08:02:04;15.80;79.90
72883;DHT22;61017;37.812;-122.286;2024-03-08T08:03:36;15.80;79.90
72883;DHT22;61017;37.812;-122.286;2024-03-08T08:05:08;15.80;80.60
72883;DHT22;61017;37.812;-122.286;2024-03-08T08:06:40;15.80;79.80
72883;DHT22;61017;37.812;-122.286;2024-03-08T08:08:11;15.90;80.00
72883;DHT22;61017;37.812;-122.286;2024-03-08T08:09:43;15.80;79.90
72883;DHT22;61017;37.812;-122.286;2024-03-08T08:11:14;15.80;79.80
72883;DHT22;61017;37.812;-122.286;2024-03-08T08:12:46;15.80;79.40
72883;DHT22;61017;37.812;-122.286;2024-03-08T08:14:18;15.80;79.90
72883;DHT22;61017;37.812;-122.286;2024-03-08T08:15:49;15.80;79.80
72883;DHT22;61017;37.812;-122.286;2024-03-08T08:17:21;15.80;79.80
72883;DHT22;61017;37.812;-122.286;2024-03-08T08:18:52;15.80;79.80
72883;DHT22;61017;37.812;-122.286;2024-03-08T08:20:24;15.80;79.80
72883;DHT22;61017;37.812;-122.286;2024-03-08T08:21:56;15.80;79.70
72883;DHT22;61017;37.812;-122.286;2024-03-08T08:23:27;15.80;79.80
72883;DHT22;61017;37.812;-122.286;2024-03-08T08:24:59;15.80;79.80
72883;DHT22;61017;37.812;-122.286;2024-03-08T08:26:31;15.80;79.70
72883;DHT22;61017;37.812;-122.286;2024-03-08T08:28:02;15.80;80.50
72883;DHT22;61017;37.812;-122.286;2024-03-08T08:29:34;15.80;79.70
72883;DHT22;61017;37.812;-122.286;2024-03-08T08:31:06;15.80;79.70
72883;DHT22;61017;37.812;-122.286;2024-03-08T08:32:38;15.80;79.70
72883;DHT22;61017;37.812;-122.286;2024-03-08T08:34:10;15.80;79.70
72883;DHT22;61017;37.812;-122.286;2024-03-08T08:35:42;15.80;79.70
72883;DHT22;61017;37.812;-122.286;2024-03-08T08:37:13;15.80;79.70
72883;DHT22;61017;37.812;-122.286;2024-03-08T08:38:45;15.80;79.60
72883;DHT22;61017;37.812;-122.286;2024-03-08T08:40:16;15.80;79.70
72883;DHT22;61017;37.812;-122.286;2024-03-08T08:41:48;15.80;79.60
72883;DHT22;61017;37.812;-122.286;2024-03-08T08:43:20;15.80;79.60
72883;DHT22;61017;37.812;-122.286;2024-03-08T08:44:52;15.80;79.70
72883;DHT22;61017;37.812;-122.286;2024-03-08T08:46:23;15.80;79.60
72883;DHT22;61017;37.812;-122.286;2024-03-08T08:47:55;15.80;79.60
72883;DHT22;61017;37.812;-122.286;2024-03-08T08:49:26;15.80;79.60
72883;DHT22;61017;37.812;-122.286;2024-03-08T08:50:58;15.80;79.60
72883;DHT22;61017;37.812;-122.286;2024-03-08T08:52:30;15.70;79.50
72883;DHT22;61017;37.812;-122.286;2024-03-08T08:54:02;15.80;79.60
72883;DHT22;61017;37.812;-122.286;2024-03-08T08:55:33;15.80;79.50
72883;DHT22;61017;37.812;-122.286;2024-03-08T08:57:05;15.70;79.60
72883;DHT22;61017;37.812;-122.286;2024-03-08T08:58:37;15.70;79.50
72883;DHT22;61017;37.812;-122.286;2024-03-08T09:00:09;15.80;79.50
72883;DHT22;61017;37.812;-122.286;2024-03-08T09:01:40;15.80;79.50
72883;DHT22;61017;37.812;-122.286;2024-03-08T09:03:12;15.80;79.40
72883;DHT22;61017;37.812;-122.286;2024-03-08T09:04:44;15.80;79.50
72883;DHT22;61017;37.812;-122.286;2024-03-08T09:06:16;15.70;79.40
72883;DHT22;61017;37.812;-122.286;2024-03-08T09:07:47;15.70;79.40
72883;DHT22;61017;37.812;-122.286;2024-03-08T09:09:19;15.70;79.40
72883;DHT22;61017;37.812;-122.286;2024-03-08T09:10:50;15.70;80.10
72883;DHT22;61017;37.812;-122.286;2024-03-08T09:12:22;15.70;79.40
72883;DHT22;61017;37.812;-122.286;2024-03-08T09:13:54;15.70;79.30